YMA7608 ENBO-ENGM
Flight info
| Callsign | YMA7608 |
|---|---|
| Flight time | N/A |
| Altitude | 32000 |
| Route | ENBO DISMU VFL TORMO BELGU ENGM |
| Aircraft | B738/M-VGDW/C |
Departure
| Time | 2026-04-28 08:14 |
|---|---|
| Airport | Bodø Airport (ENBO) |
Arrival
| Time | N/A |
|---|---|
| Airport | Oslo-Gardermoen International Airport (ENGM) |
| Time | Latitude | Longitude | Altitude | Speed | Heading |
|---|---|---|---|---|---|
| 2026-04-28 07:08 | 67.27142 | 14.36789 | 51 ft | 0 kts | 357° |
| 2026-04-28 08:09 | 67.27141 | 14.36789 | 51 ft | 1 kts | 357° |
| 2026-04-28 08:09 | 67.27095 | 14.36795 | 52 ft | 2 kts | 3° |
| 2026-04-28 08:09 | 67.27065 | 14.36724 | 52 ft | 0 kts | 61° |
| 2026-04-28 08:10 | 67.27078 | 14.36802 | 53 ft | 7 kts | 73° |
| 2026-04-28 08:10 | 67.27084 | 14.36908 | 55 ft | 3 kts | 84° |
| 2026-04-28 08:10 | 67.27086 | 14.36966 | 55 ft | 3 kts | 84° |
| 2026-04-28 08:11 | 67.27089 | 14.37022 | 55 ft | 5 kts | 77° |
| 2026-04-28 08:11 | 67.27103 | 14.37180 | 54 ft | 11 kts | 77° |
| 2026-04-28 08:11 | 67.27119 | 14.37361 | 55 ft | 9 kts | 78° |
| 2026-04-28 08:11 | 67.27132 | 14.37518 | 56 ft | 8 kts | 78° |
| 2026-04-28 08:12 | 67.27144 | 14.37668 | 57 ft | 8 kts | 77° |
| 2026-04-28 08:12 | 67.27157 | 14.37823 | 58 ft | 9 kts | 77° |
| 2026-04-28 08:12 | 67.27164 | 14.38021 | 58 ft | 11 kts | 90° |
| 2026-04-28 08:12 | 67.27163 | 14.38223 | 58 ft | 11 kts | 90° |
| 2026-04-28 08:13 | 67.27123 | 14.38370 | 58 ft | 10 kts | 165° |
| 2026-04-28 08:13 | 67.27070 | 14.38283 | 58 ft | 11 kts | 248° |
| 2026-04-28 08:13 | 67.26989 | 14.37358 | 59 ft | 101 kts | 257° |
| 2026-04-28 08:13 | 67.26791 | 14.34850 | 173 ft | 172 kts | 259° |
| 2026-04-28 08:14 | 67.26589 | 14.31887 | 817 ft | 178 kts | 258° |
| 2026-04-28 08:14 | 67.26347 | 14.28441 | 1479 ft | 214 kts | 259° |
| 2026-04-28 08:14 | 67.26057 | 14.24328 | 2176 ft | 251 kts | 259° |
| 2026-04-28 08:14 | 67.25375 | 14.20205 | 2880 ft | 258 kts | 229° |
| 2026-04-28 08:15 | 67.23962 | 14.17437 | 3646 ft | 259 kts | 214° |
| 2026-04-28 08:15 | 67.22439 | 14.14884 | 4411 ft | 263 kts | 213° |
| 2026-04-28 08:15 | 67.20907 | 14.12361 | 5164 ft | 269 kts | 214° |
| 2026-04-28 08:15 | 67.19334 | 14.09737 | 5930 ft | 273 kts | 214° |
| 2026-04-28 08:16 | 67.17724 | 14.07068 | 6699 ft | 280 kts | 216° |
| 2026-04-28 08:16 | 67.16129 | 14.04367 | 7454 ft | 282 kts | 216° |
| 2026-04-28 08:16 | 67.14473 | 14.01592 | 8235 ft | 287 kts | 216° |
| 2026-04-28 08:16 | 67.12781 | 13.98741 | 8979 ft | 295 kts | 217° |
| 2026-04-28 08:17 | 67.11070 | 13.95775 | 9724 ft | 302 kts | 215° |
| 2026-04-28 08:17 | 67.09077 | 13.93940 | 10506 ft | 313 kts | 195° |
| 2026-04-28 08:17 | 67.06956 | 13.92598 | 11278 ft | 334 kts | 196° |
| 2026-04-28 08:17 | 67.04600 | 13.91073 | 12105 ft | 366 kts | 197° |
| 2026-04-28 08:18 | 67.02064 | 13.89368 | 12892 ft | 387 kts | 197° |
| 2026-04-28 08:18 | 66.99468 | 13.87644 | 13617 ft | 386 kts | 197° |
| 2026-04-28 08:18 | 66.96882 | 13.85940 | 14297 ft | 390 kts | 197° |
| 2026-04-28 08:18 | 66.94247 | 13.84115 | 14999 ft | 393 kts | 198° |
| 2026-04-28 08:19 | 66.91614 | 13.82259 | 15681 ft | 396 kts | 199° |
| 2026-04-28 08:19 | 66.89188 | 13.80244 | 16272 ft | 399 kts | 205° |
| 2026-04-28 08:19 | 66.86595 | 13.77612 | 16917 ft | 402 kts | 205° |
| 2026-04-28 08:19 | 66.84009 | 13.74953 | 17517 ft | 404 kts | 206° |
| 2026-04-28 08:20 | 66.81401 | 13.72214 | 18123 ft | 409 kts | 205° |
| 2026-04-28 08:20 | 66.78736 | 13.69412 | 18707 ft | 415 kts | 206° |
| 2026-04-28 08:20 | 66.76158 | 13.66706 | 19270 ft | 418 kts | 206° |
| 2026-04-28 08:20 | 66.73808 | 13.64314 | 19740 ft | 420 kts | 205° |
| 2026-04-28 08:21 | 66.71117 | 13.61567 | 20254 ft | 424 kts | 206° |
| 2026-04-28 08:21 | 66.68217 | 13.59742 | 20810 ft | 436 kts | 184° |
| 2026-04-28 08:21 | 66.65247 | 13.60812 | 21376 ft | 443 kts | 160° |
| 2026-04-28 08:21 | 66.62574 | 13.64523 | 21852 ft | 441 kts | 137° |
| 2026-04-28 08:22 | 66.60716 | 13.69742 | 22288 ft | 434 kts | 123° |
| 2026-04-28 08:22 | 66.58453 | 13.74801 | 22836 ft | 451 kts | 148° |
| 2026-04-28 08:22 | 66.55499 | 13.77465 | 23387 ft | 459 kts | 171° |
| 2026-04-28 08:22 | 66.52316 | 13.77373 | 23949 ft | 461 kts | 194° |
| 2026-04-28 08:23 | 66.49216 | 13.75366 | 24512 ft | 463 kts | 198° |
| 2026-04-28 08:23 | 66.46088 | 13.73285 | 25052 ft | 469 kts | 198° |
| 2026-04-28 08:23 | 66.42978 | 13.71219 | 25567 ft | 474 kts | 198° |
| 2026-04-28 08:23 | 66.39768 | 13.69057 | 26114 ft | 481 kts | 200° |
| 2026-04-28 08:24 | 66.36546 | 13.66836 | 26653 ft | 486 kts | 200° |
| 2026-04-28 08:24 | 66.33307 | 13.64603 | 27184 ft | 490 kts | 199° |
| 2026-04-28 08:24 | 66.30220 | 13.62806 | 27661 ft | 499 kts | 189° |
| 2026-04-28 08:24 | 66.26711 | 13.62029 | 28236 ft | 507 kts | 188° |
| 2026-04-28 08:25 | 66.23229 | 13.61162 | 28777 ft | 514 kts | 189° |
| 2026-04-28 08:25 | 66.19700 | 13.59504 | 29238 ft | 511 kts | 204° |
| 2026-04-28 08:25 | 66.16341 | 13.56686 | 29711 ft | 515 kts | 205° |
| 2026-04-28 08:26 | 66.09534 | 13.50679 | 30567 ft | 523 kts | 206° |
| 2026-04-28 08:26 | 66.06097 | 13.47616 | 30996 ft | 526 kts | 207° |
| 2026-04-28 08:26 | 66.02652 | 13.44448 | 31440 ft | 530 kts | 207° |
| 2026-04-28 08:26 | 65.99194 | 13.41269 | 31884 ft | 532 kts | 206° |
| 2026-04-28 08:27 | 65.95704 | 13.38160 | 32322 ft | 538 kts | 206° |
| 2026-04-28 08:27 | 65.92926 | 13.35696 | 32442 ft | 538 kts | 207° |
| 2026-04-28 08:27 | 65.89452 | 13.32414 | 32450 ft | 536 kts | 207° |
| 2026-04-28 08:28 | 65.82433 | 13.26403 | 32457 ft | 538 kts | 201° |
| 2026-04-28 08:28 | 65.75308 | 13.21198 | 32449 ft | 537 kts | 202° |
| 2026-04-28 08:29 | 65.68161 | 13.15841 | 32445 ft | 539 kts | 202° |
| 2026-04-28 08:29 | 65.61027 | 13.10396 | 32455 ft | 539 kts | 202° |
| 2026-04-28 08:30 | 65.53967 | 13.04992 | 32447 ft | 539 kts | 201° |
| 2026-04-28 08:30 | 65.46865 | 12.99657 | 32348 ft | 541 kts | 201° |
| 2026-04-28 08:31 | 65.39733 | 12.94336 | 32323 ft | 535 kts | 202° |
| 2026-04-28 08:31 | 65.32783 | 12.89111 | 32413 ft | 542 kts | 201° |
| 2026-04-28 08:32 | 65.25557 | 12.83749 | 32371 ft | 542 kts | 202° |
| 2026-04-28 08:32 | 65.18402 | 12.78455 | 32391 ft | 543 kts | 202° |
| 2026-04-28 08:33 | 65.11225 | 12.73196 | 32398 ft | 542 kts | 201° |
| 2026-04-28 08:33 | 65.04058 | 12.67948 | 32371 ft | 542 kts | 202° |
| 2026-04-28 08:34 | 64.96886 | 12.62738 | 32366 ft | 542 kts | 202° |
| 2026-04-28 08:34 | 64.89691 | 12.57528 | 32371 ft | 542 kts | 201° |
| 2026-04-28 08:35 | 64.82519 | 12.52359 | 32322 ft | 542 kts | 202° |
| 2026-04-28 08:35 | 64.75369 | 12.47199 | 32320 ft | 541 kts | 202° |
| 2026-04-28 08:36 | 64.68193 | 12.42041 | 32333 ft | 544 kts | 202° |
| 2026-04-28 08:36 | 64.62891 | 12.38196 | 32373 ft | 544 kts | 202° |